Time;durP1;ratioP1;P1;durP2;ratioP2;P2;SDS_P1;SDS_P2;PMS_P1;PMS_P2;Temp;Humidity;BMP_temperature;BMP_pressure;BME280_temperature;BME280_humidity;BME280_pressure;Samples;Min_cycle;Max_cycle;Signal;HPM_P1;HPM_P2
2023/12/13 00:01:48;;;;;;;1999.90;999.90;;;7.20;99.90;;;;;;5052278;28;20206;-81
2023/12/13 00:04:14;;;;;;;1999.90;999.90;;;7.10;99.90;;;;;;5068945;28;20025;-81
2023/12/13 00:06:39;;;;;;;1999.90;999.90;;;7.20;99.90;;;;;;5067700;28;20036;-82
2023/12/13 00:09:08;;;;;;;1999.90;999.90;;;7.10;99.90;;;;;;5069943;28;20071;-82
2023/12/13 00:11:34;;;;;;;1999.90;999.90;;;7.10;99.90;;;;;;5049867;28;20128;-83
2023/12/13 00:14:00;;;;;;;1999.90;999.90;;;7.00;99.90;;;;;;5067265;28;20082;-83
2023/12/13 00:16:25;;;;;;;1999.90;999.90;;;6.90;99.90;;;;;;5067253;28;20466;-83
2023/12/13 00:18:53;;;;;;;1999.90;999.90;;;7.00;99.90;;;;;;5064056;28;20422;-82
2023/12/13 00:21:19;;;;;;;1999.90;999.90;;;6.90;99.90;;;;;;5068075;28;20028;-82
2023/12/13 00:23:46;;;;;;;1999.90;999.90;;;6.80;99.90;;;;;;5065609;28;20040;-83
2023/12/13 00:26:16;;;;;;;1999.90;999.90;;;6.80;99.90;;;;;;5067144;28;20024;-82
2023/12/13 00:28:42;;;;;;;1999.90;999.90;;;6.80;99.90;;;;;;5066207;28;20578;-82
2023/12/13 00:31:10;;;;;;;1999.90;999.90;;;6.80;99.90;;;;;;5051566;28;20369;-80
2023/12/13 00:33:37;;;;;;;1999.90;999.90;;;6.80;99.90;;;;;;5063617;28;20029;-84
2023/12/13 00:36:04;;;;;;;1999.90;999.90;;;6.80;99.90;;;;;;5068085;28;20033;-79
2023/12/13 00:38:30;;;;;;;1999.90;999.90;;;6.70;99.90;;;;;;5064496;28;20029;-85
2023/12/13 00:40:55;;;;;;;1999.90;999.90;;;6.70;99.90;;;;;;5061550;28;20029;-80
2023/12/13 00:43:21;;;;;;;1999.90;999.90;;;6.60;99.90;;;;;;5068729;28;20577;-83
2023/12/13 00:45:47;;;;;;;1999.90;999.90;;;6.70;99.90;;;;;;5078123;28;20047;-83
2023/12/13 00:48:13;;;;;;;1999.90;999.90;;;6.60;99.90;;;;;;5065226;28;20036;-82
2023/12/13 00:50:39;;;;;;;1999.90;999.90;;;6.60;99.90;;;;;;5065752;28;20537;-83
2023/12/13 00:53:04;;;;;;;1999.90;999.90;;;6.60;99.90;;;;;;5064442;28;20105;-83
2023/12/13 00:55:30;;;;;;;1999.90;999.90;;;6.70;99.90;;;;;;5052474;28;20074;-85
2023/12/13 00:57:57;;;;;;;1999.90;999.90;;;6.60;99.90;;;;;;5067221;28;20029;-80
2023/12/13 01:00:23;;;;;;;1999.90;999.90;;;6.60;99.90;;;;;;5071901;28;20046;-81
2023/12/13 01:02:49;;;;;;;1999.90;999.90;;;6.60;99.90;;;;;;5066729;28;20021;-84
2023/12/13 01:05:14;;;;;;;1999.90;999.90;;;6.60;99.90;;;;;;5069702;28;20032;-83
2023/12/13 01:07:40;;;;;;;1999.90;999.90;;;6.50;99.90;;;;;;5070539;28;20619;-82
2023/12/13 01:10:06;;;;;;;1999.90;999.90;;;6.40;99.90;;;;;;5067275;28;20032;-82
2023/12/13 01:12:32;;;;;;;1999.90;999.90;;;6.40;99.90;;;;;;5066539;28;20491;-81
2023/12/13 01:14:59;;;;;;;1999.90;999.90;;;6.40;99.90;;;;;;5067881;28;20045;-82
2023/12/13 01:17:25;;;;;;;1999.90;999.90;;;6.40;99.90;;;;;;5070470;28;20035;-83
2023/12/13 01:19:52;;;;;;;1999.90;999.90;;;6.40;99.90;;;;;;5070265;28;20032;-83
2023/12/13 01:22:18;;;;;;;1999.90;999.90;;;6.40;99.90;;;;;;5070975;28;20047;-81
2023/12/13 01:24:44;;;;;;;1999.90;999.90;;;6.60;99.90;;;;;;5071417;28;20060;-82
2023/12/13 01:27:10;;;;;;;1999.90;999.90;;;7.00;99.90;;;;;;5072158;28;20505;-82
2023/12/13 01:29:38;;;;;;;1999.90;999.90;;;6.90;99.90;;;;;;5069488;28;20024;-81
2023/12/13 01:32:04;;;;;;;1999.90;999.90;;;6.90;99.90;;;;;;5069087;28;20036;-81
2023/12/13 01:34:31;;;;;;;1999.90;999.90;;;6.90;99.90;;;;;;5068815;28;20035;-83
2023/12/13 01:36:57;;;;;;;1999.90;999.90;;;6.90;99.90;;;;;;5084937;28;20402;-82
2023/12/13 01:39:23;;;;;;;1999.90;999.90;;;6.90;99.90;;;;;;5069594;28;20025;-84
2023/12/13 01:41:48;;;;;;;1999.90;999.90;;;6.90;99.90;;;;;;5072037;28;20737;-83
2023/12/13 01:44:14;;;;;;;1999.90;999.90;;;6.90;99.90;;;;;;5071212;28;20036;-83
2023/12/13 01:46:40;;;;;;;1999.90;999.90;;;6.90;99.90;;;;;;5067786;28;20436;-79
2023/12/13 01:49:07;;;;;;;1999.90;999.90;;;6.90;99.90;;;;;;5071958;28;20090;-81
2023/12/13 01:51:35;;;;;;;1999.90;999.90;;;6.90;99.90;;;;;;5071634;28;20032;-84
2023/12/13 01:54:04;;;;;;;1999.90;999.90;;;6.80;99.90;;;;;;5070563;28;20052;-81
2023/12/13 01:56:30;;;;;;;1999.90;999.90;;;6.70;99.90;;;;;;5071963;28;20529;-81
2023/12/13 01:58:56;;;;;;;1999.90;999.90;;;6.60;99.90;;;;;;5068830;28;20037;-83
2023/12/13 02:01:22;;;;;;;1999.90;999.90;;;6.60;99.90;;;;;;5068808;28;20059;-83
2023/12/13 02:03:48;;;;;;;1999.90;999.90;;;6.50;99.90;;;;;;5074441;28;20032;-82
2023/12/13 02:06:14;;;;;;;1999.90;999.90;;;6.40;99.90;;;;;;5070510;28;20067;-82
2023/12/13 02:08:39;;;;;;;1999.90;999.90;;;6.30;99.90;;;;;;5070309;28;20082;-81
2023/12/13 02:11:06;;;;;;;1999.90;999.90;;;6.30;99.90;;;;;;5068121;28;20487;-80
2023/12/13 02:13:32;;;;;;;1999.90;999.90;;;6.40;99.90;;;;;;5071689;28;20029;-83
2023/12/13 02:15:58;;;;;;;1999.90;999.90;;;6.40;99.90;;;;;;5068012;28;20033;-82
2023/12/13 02:18:24;;;;;;;1999.90;999.90;;;6.50;99.90;;;;;;5051244;28;20029;-82
2023/12/13 02:20:52;;;;;;;1999.90;999.90;;;6.50;99.90;;;;;;5052343;28;20107;-82
2023/12/13 02:23:17;;;;;;;1999.90;999.90;;;6.50;99.90;;;;;;5070746;28;20110;-79
2023/12/13 02:26:07;;;;;;;1999.90;999.90;;;6.50;99.90;;;;;;5068326;28;20055;-84
2023/12/13 02:28:33;;;;;;;1999.90;999.90;;;6.60;99.90;;;;;;5055939;28;20039;-82
2023/12/13 02:31:00;;;;;;;1999.90;999.90;;;6.60;99.90;;;;;;5069430;28;20032;-81
2023/12/13 02:33:27;;;;;;;1999.90;999.90;;;6.70;99.90;;;;;;5050041;28;20039;-82
2023/12/13 02:35:56;;;;;;;1999.90;999.90;;;6.70;99.90;;;;;;5100381;27;20092;-83
2023/12/13 02:38:21;;;;;;;1999.90;999.90;;;6.70;99.90;;;;;;5072285;28;20545;-80
2023/12/13 02:40:47;;;;;;;1999.90;999.90;;;6.80;99.90;;;;;;5068646;28;20185;-80
2023/12/13 02:43:13;;;;;;;1999.90;999.90;;;6.80;99.90;;;;;;5068244;28;20111;-82
2023/12/13 02:45:39;;;;;;;1999.90;999.90;;;6.90;99.90;;;;;;5069535;28;20037;-80
2023/12/13 02:48:05;;;;;;;1999.90;999.90;;;6.80;99.90;;;;;;5066591;28;20517;-81
2023/12/13 02:50:31;;;;;;;1999.90;999.90;;;6.80;99.90;;;;;;5067897;28;20058;-83
2023/12/13 02:52:56;;;;;;;1999.90;999.90;;;6.80;99.90;;;;;;5051116;28;20053;-81
2023/12/13 02:55:22;;;;;;;1999.90;999.90;;;6.90;99.90;;;;;;5064517;28;20365;-81
2023/12/13 02:57:48;;;;;;;1999.90;999.90;;;6.90;99.90;;;;;;5065878;28;20405;-80
2023/12/13 03:00:14;;;;;;;1999.90;999.90;;;6.90;99.90;;;;;;5069469;28;20479;-82
2023/12/13 03:02:40;;;;;;;1999.90;999.90;;;6.90;99.90;;;;;;5064531;28;20262;-80
2023/12/13 03:05:06;;;;;;;1999.90;999.90;;;6.80;99.90;;;;;;5069235;28;20036;-82
2023/12/13 03:07:32;;;;;;;1999.90;999.90;;;6.90;99.90;;;;;;5068546;28;20078;-80
2023/12/13 03:09:58;;;;;;;1999.90;999.90;;;6.90;99.90;;;;;;5070657;28;20155;-83
2023/12/13 03:12:23;;;;;;;1999.90;999.90;;;6.90;99.90;;;;;;5064723;28;20037;-81
2023/12/13 03:14:51;;;;;;;1999.90;999.90;;;6.80;99.90;;;;;;5069675;28;20508;-81
2023/12/13 03:17:16;;;;;;;1999.90;999.90;;;6.70;99.90;;;;;;5066045;28;20394;-80
2023/12/13 03:19:42;;;;;;;1999.90;999.90;;;6.50;99.90;;;;;;5066086;28;20036;-78
2023/12/13 03:22:08;;;;;;;1999.90;999.90;;;6.30;99.90;;;;;;5066890;28;20368;-81
2023/12/13 03:24:35;;;;;;;1999.90;999.90;;;6.30;99.90;;;;;;5064637;28;20099;-83
2023/12/13 03:27:00;;;;;;;1999.90;999.90;;;6.30;99.90;;;;;;5066382;28;20568;-78
2023/12/13 03:29:26;;;;;;;1999.90;999.90;;;6.20;99.90;;;;;;5052951;28;20036;-81
2023/12/13 03:31:51;;;;;;;1999.90;999.90;;;6.20;99.90;;;;;;5069056;28;20506;-80
2023/12/13 03:34:17;;;;;;;1999.90;999.90;;;6.20;99.90;;;;;;5049103;28;20029;-78
2023/12/13 03:36:43;;;;;;;1999.90;999.90;;;6.30;99.90;;;;;;5066885;28;20020;-81
2023/12/13 03:39:08;;;;;;;1999.90;999.90;;;6.30;99.90;;;;;;5066341;28;20024;-81
2023/12/13 03:41:34;;;;;;;1999.90;999.90;;;6.30;99.90;;;;;;5052990;28;20378;-83
2023/12/13 03:44:01;;;;;;;1999.90;999.90;;;6.20;99.90;;;;;;5063886;28;20037;-82
2023/12/13 03:46:27;;;;;;;1999.90;999.90;;;6.20;99.90;;;;;;5068455;28;20410;-80
2023/12/13 03:48:53;;;;;;;1999.90;999.90;;;6.30;99.90;;;;;;5068436;28;20032;-80
2023/12/13 03:51:19;;;;;;;1999.90;999.90;;;6.30;99.90;;;;;;5050442;28;20383;-79
2023/12/13 03:53:45;;;;;;;1999.90;999.90;;;6.40;99.90;;;;;;5063685;28;20193;-80
2023/12/13 03:56:11;;;;;;;1999.90;999.90;;;6.30;99.90;;;;;;5065623;28;20128;-81
2023/12/13 03:58:37;;;;;;;1999.90;999.90;;;6.20;99.90;;;;;;5069179;28;20137;-80
2023/12/13 04:01:03;;;;;;;1999.90;999.90;;;6.20;99.90;;;;;;5066788;28;20612;-79
2023/12/13 04:03:28;;;;;;;1999.90;999.90;;;6.30;99.90;;;;;;5063954;28;20494;-81
2023/12/13 04:05:54;;;;;;;1999.90;999.90;;;6.40;99.90;;;;;;5068253;28;20028;-80
2023/12/13 04:08:20;;;;;;;1999.90;999.90;;;6.50;99.90;;;;;;5067873;28;20615;-80
2023/12/13 04:10:45;;;;;;;1999.90;999.90;;;6.50;99.90;;;;;;5096428;27;20387;-80
2023/12/13 04:13:11;;;;;;;1999.90;999.90;;;6.50;99.90;;;;;;5069981;28;20031;-80
2023/12/13 04:15:37;;;;;;;1999.90;999.90;;;6.50;99.90;;;;;;5067275;28;20491;-82
2023/12/13 04:18:03;;;;;;;1999.90;999.90;;;6.60;99.90;;;;;;5050021;28;20032;-80
2023/12/13 04:20:29;;;;;;;1999.90;999.90;;;6.70;99.90;;;;;;5065280;28;20033;-80
2023/12/13 04:22:55;;;;;;;1999.90;999.90;;;6.70;99.90;;;;;;5051373;28;20052;-82
2023/12/13 04:25:20;;;;;;;1999.90;999.90;;;6.70;99.90;;;;;;5065980;28;20043;-79
2023/12/13 04:27:47;;;;;;;1999.90;999.90;;;6.80;99.90;;;;;;5097239;27;20111;-79
2023/12/13 04:30:13;;;;;;;1999.90;999.90;;;6.70;99.90;;;;;;5069885;28;20033;-82
2023/12/13 04:32:39;;;;;;;1999.90;999.90;;;6.70;99.90;;;;;;5069107;28;20045;-78
2023/12/13 04:35:06;;;;;;;1999.90;999.90;;;6.50;99.90;;;;;;5066565;28;20033;-79
2023/12/13 04:37:31;;;;;;;1999.90;999.90;;;6.50;99.90;;;;;;5066256;28;20028;-81
2023/12/13 04:39:58;;;;;;;1999.90;999.90;;;6.40;99.90;;;;;;5068829;28;20038;-80
2023/12/13 04:42:24;;;;;;;1999.90;999.90;;;6.40;99.90;;;;;;5067812;28;20066;-79
2023/12/13 04:44:50;;;;;;;1999.90;999.90;;;6.30;99.90;;;;;;5068127;28;20155;-79
2023/12/13 04:47:16;;;;;;;1999.90;999.90;;;6.40;99.90;;;;;;5066587;28;20135;-80
2023/12/13 04:49:41;;;;;;;1999.90;999.90;;;6.50;99.90;;;;;;5069826;28;20086;-82
2023/12/13 04:52:07;;;;;;;1999.90;999.90;;;6.50;99.90;;;;;;5066038;28;20111;-79
2023/12/13 04:54:37;;;;;;;1999.90;999.90;;;6.50;99.90;;;;;;5052208;28;20066;-81
2023/12/13 04:57:03;;;;;;;1999.90;999.90;;;6.40;99.90;;;;;;5066051;28;20749;-78
2023/12/13 04:59:29;;;;;;;1999.90;999.90;;;6.40;99.90;;;;;;5066419;28;20279;-81
2023/12/13 05:01:54;;;;;;;1999.90;999.90;;;6.30;99.90;;;;;;5070364;28;20796;-79
2023/12/13 05:04:20;;;;;;;1999.90;999.90;;;6.20;99.90;;;;;;5048310;28;20097;-82
2023/12/13 05:06:46;;;;;;;1999.90;999.90;;;6.30;99.90;;;;;;5068477;28;20086;-81
2023/12/13 05:09:11;;;;;;;1999.90;999.90;;;6.10;99.90;;;;;;5069684;28;20143;-80
2023/12/13 05:11:37;;;;;;;1999.90;999.90;;;6.10;99.90;;;;;;5067509;28;20036;-80
2023/12/13 05:14:03;;;;;;;1999.90;999.90;;;6.10;99.90;;;;;;5066429;28;20538;-79
2023/12/13 05:16:29;;;;;;;1999.90;999.90;;;6.30;99.90;;;;;;5068804;28;20761;-79
2023/12/13 05:18:54;;;;;;;1999.90;999.90;;;6.30;99.90;;;;;;5066826;28;20025;-82
2023/12/13 05:21:23;;;;;;;1999.90;999.90;;;6.20;99.90;;;;;;5069243;28;20055;-80
2023/12/13 05:23:48;;;;;;;1999.90;999.90;;;6.40;99.90;;;;;;5065795;28;20135;-79
2023/12/13 05:26:14;;;;;;;1999.90;999.90;;;6.30;99.90;;;;;;5066767;28;20043;-81
2023/12/13 05:28:40;;;;;;;1999.90;999.90;;;6.30;99.90;;;;;;5063566;28;20116;-82
2023/12/13 05:31:05;;;;;;;1999.90;999.90;;;6.30;99.90;;;;;;5069186;28;20066;-81
2023/12/13 05:33:31;;;;;;;1999.90;999.90;;;6.30;99.90;;;;;;5067160;28;20148;-79
2023/12/13 05:35:57;;;;;;;1999.90;999.90;;;6.20;99.90;;;;;;5051942;28;20028;-79
2023/12/13 05:38:22;;;;;;;1999.90;999.90;;;6.30;99.90;;;;;;5045887;28;20056;-82
2023/12/13 05:40:48;;;;;;;1999.90;999.90;;;6.20;99.90;;;;;;5072320;28;20047;-83
2023/12/13 05:43:14;;;;;;;1999.90;999.90;;;6.10;99.90;;;;;;5070156;28;20025;-79
2023/12/13 05:45:43;;;;;;;1999.90;999.90;;;6.20;99.90;;;;;;5068120;28;20037;-78
2023/12/13 05:48:09;;;;;;;1999.90;999.90;;;6.20;99.90;;;;;;5067850;28;20025;-81
2023/12/13 05:50:35;;;;;;;1999.90;999.90;;;6.10;99.90;;;;;;5071613;28;20032;-82
2023/12/13 05:53:00;;;;;;;1999.90;999.90;;;6.30;99.90;;;;;;5066614;28;20044;-80
2023/12/13 05:55:27;;;;;;;1999.90;999.90;;;6.30;99.90;;;;;;5068375;28;20115;-78
2023/12/13 05:57:53;;;;;;;1999.90;999.90;;;6.30;99.90;;;;;;5071404;28;20032;-78
2023/12/13 06:00:19;;;;;;;1999.90;999.90;;;6.40;99.90;;;;;;5064912;28;20029;-78
2023/12/13 06:02:44;;;;;;;1999.90;999.90;;;6.40;99.90;;;;;;5070285;28;20039;-78
2023/12/13 06:05:10;;;;;;;1999.90;999.90;;;6.30;99.90;;;;;;5068407;28;20033;-81
2023/12/13 06:07:36;;;;;;;1999.90;999.90;;;6.40;99.90;;;;;;5066923;28;20066;-81
2023/12/13 06:10:04;;;;;;;1999.90;999.90;;;6.30;99.90;;;;;;5071045;28;20024;-78
2023/12/13 06:12:29;;;;;;;1999.90;999.90;;;6.40;99.90;;;;;;5070055;28;20562;-81
2023/12/13 06:14:58;;;;;;;1999.90;999.90;;;6.50;99.90;;;;;;5071245;28;20042;-81
2023/12/13 06:17:23;;;;;;;1999.90;999.90;;;6.60;99.90;;;;;;5070966;28;20035;-77
2023/12/13 06:19:49;;;;;;;1999.90;999.90;;;6.80;99.90;;;;;;5097526;27;20028;-77
2023/12/13 06:22:15;;;;;;;1999.90;999.90;;;6.90;99.90;;;;;;5069768;28;20545;-76
2023/12/13 06:24:41;;;;;;;1999.90;999.90;;;7.10;99.90;;;;;;5067458;28;20111;-76
2023/12/13 06:27:06;;;;;;;1999.90;999.90;;;7.10;99.90;;;;;;5066678;28;20036;-78
2023/12/13 06:29:33;;;;;;;1999.90;999.90;;;7.10;99.90;;;;;;5083818;28;20035;-81
2023/12/13 06:31:59;;;;;;;1999.90;999.90;;;7.10;99.90;;;;;;5065230;28;20029;-81
2023/12/13 06:34:24;;;;;;;1999.90;999.90;;;7.10;99.90;;;;;;5070379;28;20058;-83
2023/12/13 06:36:50;;;;;;;1999.90;999.90;;;7.10;99.90;;;;;;5067873;28;20036;-79
2023/12/13 06:39:16;;;;;;;1999.90;999.90;;;7.10;99.90;;;;;;5067280;28;20025;-79
2023/12/13 06:41:42;;;;;;;1999.90;999.90;;;7.20;99.90;;;;;;5066029;28;20063;-77
2023/12/13 06:44:08;;;;;;;1999.90;999.90;;;7.50;99.90;;;;;;5067363;28;20093;-78
2023/12/13 06:46:34;;;;;;;1999.90;999.90;;;7.60;99.90;;;;;;5065980;28;20039;-81
2023/12/13 06:49:00;;;;;;;1999.90;999.90;;;7.60;99.90;;;;;;5065168;28;20041;-78
2023/12/13 06:51:26;;;;;;;1999.90;999.90;;;7.60;99.90;;;;;;5063110;28;20407;-80
2023/12/13 06:53:51;;;;;;;1999.90;999.90;;;7.70;99.90;;;;;;5065965;28;20056;-83
2023/12/13 06:56:18;;;;;;;1999.90;999.90;;;7.80;99.90;;;;;;5063579;28;20069;-80
2023/12/13 06:58:44;;;;;;;1999.90;999.90;;;7.80;99.90;;;;;;5050989;28;20035;-78
2023/12/13 07:01:10;;;;;;;1999.90;999.90;;;7.90;99.90;;;;;;5062896;28;20024;-78
2023/12/13 07:03:35;;;;;;;1999.90;999.90;;;7.70;99.90;;;;;;5062848;28;20052;-80
2023/12/13 07:06:03;;;;;;;1999.90;999.90;;;7.80;99.90;;;;;;5066164;28;20056;-82
2023/12/13 07:08:29;;;;;;;1999.90;999.90;;;7.70;99.90;;;;;;5064336;28;20028;-81
2023/12/13 07:10:55;;;;;;;1999.90;999.90;;;7.70;99.90;;;;;;5051198;28;20039;-81
2023/12/13 07:13:20;;;;;;;1999.90;999.90;;;7.70;99.90;;;;;;5068523;28;20103;-84
2023/12/13 07:15:46;;;;;;;1999.90;999.90;;;7.70;99.90;;;;;;5070116;28;20025;-79
2023/12/13 07:18:12;;;;;;;1999.90;999.90;;;7.70;99.90;;;;;;5065078;28;20033;-84
2023/12/13 07:20:39;;;;;;;1999.90;999.90;;;7.60;99.90;;;;;;5067049;28;20512;-81
2023/12/13 07:23:05;;;;;;;1999.90;999.90;;;7.80;99.90;;;;;;5069338;28;20131;-79
2023/12/13 07:25:31;;;;;;;1999.90;999.90;;;7.80;99.90;;;;;;5071993;28;20032;-81
2023/12/13 07:27:57;;;;;;;1999.90;999.90;;;7.90;99.90;;;;;;5066407;28;20048;-79
2023/12/13 07:30:25;;;;;;;1999.90;999.90;;;7.80;99.90;;;;;;5075119;28;20082;-79
2023/12/13 07:32:53;;;;;;;1999.90;999.90;;;7.90;99.90;;;;;;5100579;27;20046;-79
2023/12/13 07:35:19;;;;;;;1999.90;999.90;;;7.90;99.90;;;;;;5067958;28;20040;-80
2023/12/13 07:37:45;;;;;;;1999.90;999.90;;;7.90;99.90;;;;;;5067440;28;20073;-86
2023/12/13 07:40:11;;;;;;;1999.90;999.90;;;7.90;99.90;;;;;;5066037;28;20533;-84
2023/12/13 07:42:40;;;;;;;1999.90;999.90;;;8.00;99.90;;;;;;5067020;28;20032;-86
2023/12/13 07:45:06;;;;;;;1999.90;999.90;;;7.90;99.90;;;;;;5067024;28;20036;-88
2023/12/13 07:47:33;;;;;;;1999.90;999.90;;;8.00;99.90;;;;;;5069016;28;20036;-91
2023/12/13 07:49:59;;;;;;;1999.90;999.90;;;7.80;99.90;;;;;;5067800;28;20028;-91
2023/12/13 07:52:25;;;;;;;1999.90;999.90;;;8.00;99.90;;;;;;5063674;28;20047;-90
2023/12/13 07:54:50;;;;;;;1999.90;999.90;;;8.00;99.90;;;;;;5061347;28;20078;-89
2023/12/13 07:57:16;;;;;;;1999.90;999.90;;;8.00;99.90;;;;;;5064606;28;20170;-92
2023/12/13 07:59:42;;;;;;;1999.90;999.90;;;7.90;99.90;;;;;;5061229;28;20093;-87
2023/12/13 08:02:08;;;;;;;1999.90;999.90;;;7.80;99.90;;;;;;5072049;28;20116;-90
2023/12/13 08:04:34;;;;;;;1999.90;999.90;;;8.00;99.90;;;;;;5051091;28;20531;-88
2023/12/13 08:06:59;;;;;;;1999.90;999.90;;;8.00;99.90;;;;;;5066876;28;20040;-89
2023/12/13 08:09:25;;;;;;;1999.90;999.90;;;8.00;99.90;;;;;;5067243;28;20040;-88
2023/12/13 08:11:50;;;;;;;1999.90;999.90;;;8.00;99.90;;;;;;5069561;28;20395;-76
2023/12/13 08:14:25;;;;;;;1999.90;999.90;;;8.10;99.90;;;;;;5067676;28;20588;-90
2023/12/13 08:16:51;;;;;;;1999.90;999.90;;;8.20;99.90;;;;;;5066940;28;20025;-87
2023/12/13 08:19:17;;;;;;;1999.90;999.90;;;8.30;99.90;;;;;;5069635;28;20051;-88
2023/12/13 08:21:42;;;;;;;1999.90;999.90;;;8.30;99.90;;;;;;5065807;28;20090;-85
2023/12/13 08:24:10;;;;;;;1999.90;999.90;;;8.40;99.90;;;;;;5067977;28;20573;-82
2023/12/13 08:26:35;;;;;;;1999.90;999.90;;;8.40;99.90;;;;;;5062595;28;20123;-84
2023/12/13 08:29:01;;;;;;;1999.90;999.90;;;8.40;99.90;;;;;;5067469;28;20120;-82
2023/12/13 08:31:27;;;;;;;1999.90;999.90;;;8.30;99.90;;;;;;5046399;28;20033;-83
2023/12/13 08:33:52;;;;;;;1999.90;999.90;;;8.50;99.90;;;;;;5069161;28;20032;-85
2023/12/13 08:36:18;;;;;;;1999.90;999.90;;;8.60;99.90;;;;;;5070752;28;20491;-83
2023/12/13 08:38:45;;;;;;;1999.90;999.90;;;8.70;99.90;;;;;;5052328;28;20503;-82
2023/12/13 08:41:16;;;;;;;1999.90;999.90;;;8.60;99.90;;;;;;5064526;28;20066;-81
2023/12/13 08:43:42;;;;;;;1999.90;999.90;;;8.50;99.90;;;;;;5065693;28;20037;-79
2023/12/13 08:46:08;;;;;;;1999.90;999.90;;;8.50;99.90;;;;;;5067365;28;20086;-85
2023/12/13 08:48:34;;;;;;;1999.90;999.90;;;8.60;99.90;;;;;;5065825;28;20037;-85
2023/12/13 08:51:00;;;;;;;1999.90;999.90;;;8.60;99.90;;;;;;5065740;28;20067;-87
2023/12/13 08:53:27;;;;;;;1999.90;999.90;;;8.50;99.90;;;;;;5063619;28;20055;-87
2023/12/13 08:55:52;;;;;;;1999.90;999.90;;;8.40;99.90;;;;;;5044306;28;20040;-87
2023/12/13 08:58:18;;;;;;;1999.90;999.90;;;8.40;99.90;;;;;;5045907;28;20453;-87
2023/12/13 09:00:44;;;;;;;1999.90;999.90;;;8.40;99.90;;;;;;5063782;28;20025;-82
2023/12/13 09:03:09;;;;;;;1999.90;999.90;;;8.40;99.90;;;;;;5068973;28;20039;-78
2023/12/13 09:05:37;;;;;;;1999.90;999.90;;;8.40;99.90;;;;;;5064493;28;20059;-83
2023/12/13 09:08:05;;;;;;;1999.90;999.90;;;8.50;99.90;;;;;;5065721;28;20107;-85
2023/12/13 09:10:34;;;;;;;1999.90;999.90;;;8.30;99.90;;;;;;5066134;28;20123;-84
2023/12/13 09:13:04;;;;;;;1999.90;999.90;;;8.40;99.90;;;;;;5064394;28;20033;-83
2023/12/13 09:15:30;;;;;;;1999.90;999.90;;;8.40;99.90;;;;;;5072315;28;20024;-83
2023/12/13 09:17:55;;;;;;;1999.90;999.90;;;8.50;99.90;;;;;;5065933;28;20114;-85
2023/12/13 09:20:21;;;;;;;1999.90;999.90;;;8.50;99.90;;;;;;5072993;28;20482;-81
2023/12/13 09:22:47;;;;;;;1999.90;999.90;;;8.60;99.90;;;;;;5068436;28;20039;-84
2023/12/13 09:25:14;;;;;;;1999.90;999.90;;;8.60;99.90;;;;;;5055495;28;20037;-84
2023/12/13 09:27:40;;;;;;;1999.90;999.90;;;8.60;99.90;;;;;;5068295;28;20033;-85
2023/12/13 09:30:09;;;;;;;1999.90;999.90;;;8.60;99.90;;;;;;5069412;28;20043;-84
2023/12/13 09:32:35;;;;;;;1999.90;999.90;;;8.60;99.90;;;;;;5053601;28;20037;-83
2023/12/13 09:35:02;;;;;;;1999.90;999.90;;;8.50;99.90;;;;;;5064956;28;20032;-85
2023/12/13 09:37:28;;;;;;;1999.90;999.90;;;8.60;99.90;;;;;;5065272;28;20036;-85
2023/12/13 09:39:53;;;;;;;1999.90;999.90;;;8.60;99.90;;;;;;5065377;28;20036;-80
2023/12/13 09:42:19;;;;;;;1999.90;999.90;;;8.60;99.90;;;;;;5070550;28;20134;-83
2023/12/13 09:44:49;;;;;;;1999.90;999.90;;;8.60;99.90;;;;;;5052947;28;20073;-79
2023/12/13 09:47:16;;;;;;;1999.90;999.90;;;8.50;99.90;;;;;;5067859;28;20037;-79
2023/12/13 09:49:42;;;;;;;1999.90;999.90;;;8.70;99.90;;;;;;5065195;28;20028;-79
2023/12/13 09:52:09;;;;;;;1999.90;999.90;;;8.80;99.90;;;;;;5064740;28;20036;-78
2023/12/13 09:54:40;;;;;;;1999.90;999.90;;;8.80;99.90;;;;;;5067134;28;20191;-77
2023/12/13 09:57:07;;;;;;;1999.90;999.90;;;8.90;99.90;;;;;;5065092;28;20037;-77
2023/12/13 09:59:33;;;;;;;1999.90;999.90;;;8.90;99.90;;;;;;5066026;28;20024;-78
2023/12/13 10:01:59;;;;;;;1999.90;999.90;;;9.00;99.90;;;;;;5068424;28;20052;-77
2023/12/13 10:04:30;;;;;;;1999.90;999.90;;;8.90;99.90;;;;;;5071461;28;20051;-78
2023/12/13 10:06:56;;;;;;;1999.90;999.90;;;9.10;99.90;;;;;;5063728;28;20764;-80
2023/12/13 10:09:29;;;;;;;1999.90;999.90;;;9.20;99.90;;;;;;5067854;28;20033;-77
2023/12/13 10:11:58;;;;;;;1999.90;999.90;;;9.30;99.90;;;;;;5050510;28;20063;-78
2023/12/13 10:14:24;;;;;;;1999.90;999.90;;;9.00;99.90;;;;;;5067119;28;20025;-78
2023/12/13 10:16:50;;;;;;;1999.90;999.90;;;9.00;99.90;;;;;;5070792;28;20082;-79
2023/12/13 10:19:16;;;;;;;1999.90;999.90;;;9.00;99.90;;;;;;5069884;28;20025;-78
2023/12/13 10:21:42;;;;;;;1999.90;999.90;;;8.80;99.90;;;;;;5063992;28;21326;-80
2023/12/13 10:24:08;;;;;;;1999.90;999.90;;;8.80;99.90;;;;;;5069897;28;20033;-78
2023/12/13 10:26:36;;;;;;;1999.90;999.90;;;8.70;99.90;;;;;;5072485;28;20032;-79
2023/12/13 10:29:05;;;;;;;1999.90;999.90;;;8.60;99.90;;;;;;5068729;28;20431;-79
2023/12/13 10:31:31;;;;;;;1999.90;999.90;;;8.50;99.90;;;;;;5068444;28;20033;-79
2023/12/13 10:34:00;;;;;;;1999.90;999.90;;;8.30;99.90;;;;;;5067109;28;20446;-80
2023/12/13 10:36:27;;;;;;;1999.90;999.90;;;8.30;99.90;;;;;;5070498;28;20035;-79
2023/12/13 10:38:54;;;;;;;1999.90;999.90;;;8.20;99.90;;;;;;5065741;28;20120;-79
2023/12/13 10:41:27;;;;;;;1999.90;999.90;;;8.20;99.90;;;;;;5068237;28;20524;-78
2023/12/13 10:43:58;;;;;;;1999.90;999.90;;;7.90;99.90;;;;;;5068948;28;20036;-78
2023/12/13 10:46:27;;;;;;;;;;;7.70;99.90;;;;;;5070198;28;20032;-77
2023/12/13 10:48:54;;;;;;;1999.90;999.90;;;7.60;99.90;;;;;;5065256;28;19916;-79
2023/12/13 10:51:22;;;;;;;1999.90;999.90;;;7.50;99.90;;;;;;5102991;27;20097;-78
2023/12/13 10:53:48;;;;;;;1999.90;999.90;;;7.40;99.90;;;;;;5071889;28;20072;-79
2023/12/13 10:56:18;;;;;;;1999.90;999.90;;;7.30;99.90;;;;;;5070680;28;20504;-79
2023/12/13 10:58:46;;;;;;;1999.90;999.90;;;7.30;99.90;;;;;;5069751;28;20739;-79
2023/12/13 11:01:14;;;;;;;1999.90;999.90;;;7.50;99.90;;;;;;5067454;28;20035;-79
2023/12/13 11:04:06;;;;;;;1999.90;999.90;;;7.40;99.90;;;;;;5069781;28;20067;-78
2023/12/13 11:06:32;;;;;;;1999.90;999.90;;;7.50;99.90;;;;;;5101012;27;20040;-78
2023/12/13 11:09:09;;;;;;;1999.90;999.90;;;7.50;99.90;;;;;;5070207;28;20035;-80
2023/12/13 11:11:35;;;;;;;1999.90;999.90;;;7.40;99.90;;;;;;5068996;28;20082;-79
2023/12/13 11:14:01;;;;;;;1999.90;999.90;;;7.20;99.90;;;;;;5070172;28;20032;-78
2023/12/13 11:16:27;;;;;;;1999.90;999.90;;;7.10;99.90;;;;;;5068904;28;20028;-79
2023/12/13 11:18:57;;;;;;;1999.90;999.90;;;7.10;99.90;;;;;;5069487;28;20056;-78
2023/12/13 11:21:26;;;;;;;1999.90;999.90;;;7.10;99.90;;;;;;5081816;28;20040;-78
2023/12/13 11:23:54;;;;;;;1999.90;999.90;;;7.10;99.90;;;;;;5073260;28;20063;-78
2023/12/13 11:26:23;;;;;;;1999.90;999.90;;;7.20;99.90;;;;;;5068640;28;20107;-79
2023/12/13 11:28:50;;;;;;;1999.90;999.90;;;7.30;99.90;;;;;;5068583;28;20029;-80
2023/12/13 11:31:26;;;;;;;1999.90;999.90;;;7.40;99.90;;;;;;5069395;28;20107;-79
2023/12/13 11:33:56;;;;;;;1999.90;999.90;;;7.40;99.90;;;;;;5067042;28;20139;-78
2023/12/13 11:36:23;;;;;;;1999.90;999.90;;;7.20;99.90;;;;;;5067419;28;20036;-79
2023/12/13 11:38:54;;;;;;;1999.90;999.90;;;7.20;99.90;;;;;;5072514;28;20044;-80
2023/12/13 11:41:21;;;;;;;1999.90;999.90;;;7.20;99.90;;;;;;5068455;28;20024;-77
2023/12/13 11:43:47;;;;;;;1999.90;999.90;;;7.10;99.90;;;;;;5066853;28;20566;-78
2023/12/13 11:46:14;;;;;;;1999.90;999.90;;;7.50;99.90;;;;;;5068298;28;20028;-80
2023/12/13 11:48:43;;;;;;;1999.90;999.90;;;7.60;99.90;;;;;;5070889;28;20035;-82
2023/12/13 11:51:12;;;;;;;1999.90;999.90;;;7.60;99.90;;;;;;5066441;28;20088;-82
2023/12/13 11:53:38;;;;;;;1999.90;999.90;;;7.80;99.90;;;;;;5071664;28;20076;-80
2023/12/13 11:56:10;;;;;;;1999.90;999.90;;;7.60;99.90;;;;;;5067013;28;20063;-83
2023/12/13 11:58:36;;;;;;;1999.90;999.90;;;7.90;99.90;;;;;;5065689;28;20016;-82
2023/12/13 12:01:02;;;;;;;1999.90;999.90;;;7.70;99.90;;;;;;5053807;28;20055;-77
2023/12/13 12:03:28;;;;;;;1999.90;999.90;;;7.70;99.90;;;;;;5066572;28;20036;-76
2023/12/13 12:05:54;;;;;;;1999.90;999.90;;;7.80;99.90;;;;;;5050712;28;21658;-79